sensor_id;sensor_type;location;lat;lon;timestamp;temperature;humidity
80540;DHT22;69869;48.036;15.780;2023-05-24T00:01:16;19.60;74.00
80540;DHT22;69869;48.036;15.780;2023-05-24T00:03:50;19.60;73.70
80540;DHT22;69869;48.036;15.780;2023-05-24T00:06:17;19.60;73.60
80540;DHT22;69869;48.036;15.780;2023-05-24T00:08:43;19.60;73.70
80540;DHT22;69869;48.036;15.780;2023-05-24T00:11:09;19.60;73.80
80540;DHT22;69869;48.036;15.780;2023-05-24T00:13:36;19.60;74.90
80540;DHT22;69869;48.036;15.780;2023-05-24T00:16:02;19.60;75.00
80540;DHT22;69869;48.036;15.780;2023-05-24T00:18:27;19.60;74.90
80540;DHT22;69869;48.036;15.780;2023-05-24T00:20:56;19.60;75.40
80540;DHT22;69869;48.036;15.780;2023-05-24T00:23:23;19.60;75.10
80540;DHT22;69869;48.036;15.780;2023-05-24T00:25:50;19.60;74.70
80540;DHT22;69869;48.036;15.780;2023-05-24T00:28:15;19.60;75.00
80540;DHT22;69869;48.036;15.780;2023-05-24T00:30:41;19.60;74.80
80540;DHT22;69869;48.036;15.780;2023-05-24T00:33:07;19.60;75.00
80540;DHT22;69869;48.036;15.780;2023-05-24T00:35:32;19.60;74.90
80540;DHT22;69869;48.036;15.780;2023-05-24T00:37:58;19.60;74.80
80540;DHT22;69869;48.036;15.780;2023-05-24T00:40:24;19.70;74.80
80540;DHT22;69869;48.036;15.780;2023-05-24T00:42:49;19.60;74.60
80540;DHT22;69869;48.036;15.780;2023-05-24T00:45:15;19.60;74.60
80540;DHT22;69869;48.036;15.780;2023-05-24T00:47:41;19.60;74.70
80540;DHT22;69869;48.036;15.780;2023-05-24T00:50:09;19.60;74.70
80540;DHT22;69869;48.036;15.780;2023-05-24T00:52:37;19.60;74.30
80540;DHT22;69869;48.036;15.780;2023-05-24T00:55:04;19.60;74.30
80540;DHT22;69869;48.036;15.780;2023-05-24T00:57:31;19.60;73.90
80540;DHT22;69869;48.036;15.780;2023-05-24T00:59:57;19.60;74.00
80540;DHT22;69869;48.036;15.780;2023-05-24T01:02:27;19.60;74.10
80540;DHT22;69869;48.036;15.780;2023-05-24T01:04:52;19.60;74.40
80540;DHT22;69869;48.036;15.780;2023-05-24T01:07:40;19.60;74.40
80540;DHT22;69869;48.036;15.780;2023-05-24T01:10:31;19.60;74.30
80540;DHT22;69869;48.036;15.780;2023-05-24T01:16:16;19.60;73.70
80540;DHT22;69869;48.036;15.780;2023-05-24T01:18:59;19.60;73.90
80540;DHT22;69869;48.036;15.780;2023-05-24T01:24:40;19.60;73.40
80540;DHT22;69869;48.036;15.780;2023-05-24T01:27:12;19.60;73.90
80540;DHT22;69869;48.036;15.780;2023-05-24T01:29:39;19.60;73.70
80540;DHT22;69869;48.036;15.780;2023-05-24T01:32:06;19.60;73.90
80540;DHT22;69869;48.036;15.780;2023-05-24T01:34:32;19.60;73.10
80540;DHT22;69869;48.036;15.780;2023-05-24T01:36:57;19.60;73.60
80540;DHT22;69869;48.036;15.780;2023-05-24T01:39:25;19.70;74.20
80540;DHT22;69869;48.036;15.780;2023-05-24T01:49:55;19.60;73.60
80540;DHT22;69869;48.036;15.780;2023-05-24T01:52:24;19.60;73.90
80540;DHT22;69869;48.036;15.780;2023-05-24T01:54:52;19.60;74.10
80540;DHT22;69869;48.036;15.780;2023-05-24T01:57:19;19.60;73.90
80540;DHT22;69869;48.036;15.780;2023-05-24T01:59:48;19.60;73.00
80540;DHT22;69869;48.036;15.780;2023-05-24T02:02:15;19.60;73.60
80540;DHT22;69869;48.036;15.780;2023-05-24T02:04:41;19.60;73.60
80540;DHT22;69869;48.036;15.780;2023-05-24T02:07:07;19.60;73.60
80540;DHT22;69869;48.036;15.780;2023-05-24T02:09:33;19.60;73.30
80540;DHT22;69869;48.036;15.780;2023-05-24T02:11:58;19.60;73.30
80540;DHT22;69869;48.036;15.780;2023-05-24T02:14:24;19.60;73.80
80540;DHT22;69869;48.036;15.780;2023-05-24T02:16:51;19.60;74.50
80540;DHT22;69869;48.036;15.780;2023-05-24T02:19:16;19.70;74.90
80540;DHT22;69869;48.036;15.780;2023-05-24T02:21:42;19.60;74.30
80540;DHT22;69869;48.036;15.780;2023-05-24T02:24:08;19.70;74.90
80540;DHT22;69869;48.036;15.780;2023-05-24T02:26:36;19.70;74.20
80540;DHT22;69869;48.036;15.780;2023-05-24T02:29:02;19.70;74.60
80540;DHT22;69869;48.036;15.780;2023-05-24T02:31:28;19.70;74.80
80540;DHT22;69869;48.036;15.780;2023-05-24T02:33:57;19.70;74.80
80540;DHT22;69869;48.036;15.780;2023-05-24T02:36:23;19.70;74.40
80540;DHT22;69869;48.036;15.780;2023-05-24T02:38:49;19.70;74.20
80540;DHT22;69869;48.036;15.780;2023-05-24T02:41:15;19.70;74.30
80540;DHT22;69869;48.036;15.780;2023-05-24T02:43:46;19.70;74.30
80540;DHT22;69869;48.036;15.780;2023-05-24T02:46:12;19.70;74.30
80540;DHT22;69869;48.036;15.780;2023-05-24T02:48:38;19.70;74.30
80540;DHT22;69869;48.036;15.780;2023-05-24T02:51:04;19.70;75.00
80540;DHT22;69869;48.036;15.780;2023-05-24T02:53:30;19.70;74.90
80540;DHT22;69869;48.036;15.780;2023-05-24T02:55:56;19.70;74.90
80540;DHT22;69869;48.036;15.780;2023-05-24T02:58:22;19.70;74.60
80540;DHT22;69869;48.036;15.780;2023-05-24T03:00:48;19.70;74.80
80540;DHT22;69869;48.036;15.780;2023-05-24T03:03:14;19.70;74.70
80540;DHT22;69869;48.036;15.780;2023-05-24T03:05:40;19.70;74.60
80540;DHT22;69869;48.036;15.780;2023-05-24T03:08:06;19.70;74.60
80540;DHT22;69869;48.036;15.780;2023-05-24T03:10:32;19.70;74.60
80540;DHT22;69869;48.036;15.780;2023-05-24T03:12:57;19.70;74.50
80540;DHT22;69869;48.036;15.780;2023-05-24T03:15:23;19.70;74.30
80540;DHT22;69869;48.036;15.780;2023-05-24T03:17:49;19.70;74.30
80540;DHT22;69869;48.036;15.780;2023-05-24T03:20:15;19.70;74.20
80540;DHT22;69869;48.036;15.780;2023-05-24T03:22:42;19.70;74.30
80540;DHT22;69869;48.036;15.780;2023-05-24T03:25:08;19.70;74.30
80540;DHT22;69869;48.036;15.780;2023-05-24T03:27:34;19.70;74.90
80540;DHT22;69869;48.036;15.780;2023-05-24T03:30:00;19.70;74.20
80540;DHT22;69869;48.036;15.780;2023-05-24T03:32:26;19.70;74.30
80540;DHT22;69869;48.036;15.780;2023-05-24T03:34:52;19.70;74.70
80540;DHT22;69869;48.036;15.780;2023-05-24T03:37:17;19.70;74.20
80540;DHT22;69869;48.036;15.780;2023-05-24T03:39:43;19.70;74.20
80540;DHT22;69869;48.036;15.780;2023-05-24T03:42:08;19.70;74.10
80540;DHT22;69869;48.036;15.780;2023-05-24T03:44:34;19.70;74.10
80540;DHT22;69869;48.036;15.780;2023-05-24T03:47:00;19.70;73.70
80540;DHT22;69869;48.036;15.780;2023-05-24T03:49:26;19.70;74.20
80540;DHT22;69869;48.036;15.780;2023-05-24T03:51:51;19.70;73.70
80540;DHT22;69869;48.036;15.780;2023-05-24T03:54:17;19.70;74.00
80540;DHT22;69869;48.036;15.780;2023-05-24T03:56:43;19.70;74.30
80540;DHT22;69869;48.036;15.780;2023-05-24T03:59:09;19.70;73.40
80540;DHT22;69869;48.036;15.780;2023-05-24T04:01:34;19.70;73.70
80540;DHT22;69869;48.036;15.780;2023-05-24T04:04:03;19.70;73.60
80540;DHT22;69869;48.036;15.780;2023-05-24T04:06:29;19.70;74.00
80540;DHT22;69869;48.036;15.780;2023-05-24T04:08:58;19.70;74.20
80540;DHT22;69869;48.036;15.780;2023-05-24T04:11:25;19.70;73.50
80540;DHT22;69869;48.036;15.780;2023-05-24T04:13:54;19.70;73.00
80540;DHT22;69869;48.036;15.780;2023-05-24T04:16:24;19.70;72.80
80540;DHT22;69869;48.036;15.780;2023-05-24T04:18:50;19.80;74.50
80540;DHT22;69869;48.036;15.780;2023-05-24T04:21:16;19.70;74.30
80540;DHT22;69869;48.036;15.780;2023-05-24T04:23:45;19.70;73.70
80540;DHT22;69869;48.036;15.780;2023-05-24T04:26:11;19.70;73.40
80540;DHT22;69869;48.036;15.780;2023-05-24T04:28:37;19.70;73.70
80540;DHT22;69869;48.036;15.780;2023-05-24T04:31:04;19.70;74.10
80540;DHT22;69869;48.036;15.780;2023-05-24T04:33:31;19.70;73.30
80540;DHT22;69869;48.036;15.780;2023-05-24T04:35:57;19.70;72.70
80540;DHT22;69869;48.036;15.780;2023-05-24T04:38:25;19.70;73.80
80540;DHT22;69869;48.036;15.780;2023-05-24T04:40:54;19.70;73.80
80540;DHT22;69869;48.036;15.780;2023-05-24T04:43:21;19.70;74.40
80540;DHT22;69869;48.036;15.780;2023-05-24T04:45:47;19.70;74.60
80540;DHT22;69869;48.036;15.780;2023-05-24T04:48:12;19.80;74.50
80540;DHT22;69869;48.036;15.780;2023-05-24T04:50:38;19.70;74.70
80540;DHT22;69869;48.036;15.780;2023-05-24T04:53:04;19.80;74.40
80540;DHT22;69869;48.036;15.780;2023-05-24T04:55:30;19.80;74.40
80540;DHT22;69869;48.036;15.780;2023-05-24T04:57:57;19.70;74.60
80540;DHT22;69869;48.036;15.780;2023-05-24T05:00:22;19.70;75.20
80540;DHT22;69869;48.036;15.780;2023-05-24T05:02:48;19.80;74.60
80540;DHT22;69869;48.036;15.780;2023-05-24T05:05:14;19.80;74.70
80540;DHT22;69869;48.036;15.780;2023-05-24T05:07:40;19.70;74.60
80540;DHT22;69869;48.036;15.780;2023-05-24T05:10:06;19.70;74.50
80540;DHT22;69869;48.036;15.780;2023-05-24T05:12:32;19.70;74.50
80540;DHT22;69869;48.036;15.780;2023-05-24T05:14:58;19.80;75.00
80540;DHT22;69869;48.036;15.780;2023-05-24T05:17:23;19.80;74.40
80540;DHT22;69869;48.036;15.780;2023-05-24T05:19:49;19.70;74.30
80540;DHT22;69869;48.036;15.780;2023-05-24T05:22:15;19.80;74.40
80540;DHT22;69869;48.036;15.780;2023-05-24T05:24:40;19.80;74.30
80540;DHT22;69869;48.036;15.780;2023-05-24T05:27:06;19.80;74.40
80540;DHT22;69869;48.036;15.780;2023-05-24T05:29:32;19.80;74.50
80540;DHT22;69869;48.036;15.780;2023-05-24T05:31:57;19.70;74.40
80540;DHT22;69869;48.036;15.780;2023-05-24T05:34:23;19.80;74.50
80540;DHT22;69869;48.036;15.780;2023-05-24T05:36:49;19.80;74.20
80540;DHT22;69869;48.036;15.780;2023-05-24T05:39:14;19.70;74.40
80540;DHT22;69869;48.036;15.780;2023-05-24T05:41:40;19.80;74.50
80540;DHT22;69869;48.036;15.780;2023-05-24T05:44:11;19.80;74.30
80540;DHT22;69869;48.036;15.780;2023-05-24T05:46:38;19.80;74.40
80540;DHT22;69869;48.036;15.780;2023-05-24T05:49:04;19.80;74.20
80540;DHT22;69869;48.036;15.780;2023-05-24T05:51:30;19.80;74.30
80540;DHT22;69869;48.036;15.780;2023-05-24T05:53:56;19.80;74.20
80540;DHT22;69869;48.036;15.780;2023-05-24T05:56:22;19.80;74.20
80540;DHT22;69869;48.036;15.780;2023-05-24T05:58:47;19.80;74.20
80540;DHT22;69869;48.036;15.780;2023-05-24T06:01:15;19.80;74.00
80540;DHT22;69869;48.036;15.780;2023-05-24T06:03:41;19.80;74.20
80540;DHT22;69869;48.036;15.780;2023-05-24T06:06:06;19.80;74.20
80540;DHT22;69869;48.036;15.780;2023-05-24T06:08:32;19.80;74.20
80540;DHT22;69869;48.036;15.780;2023-05-24T06:11:00;19.80;74.20
80540;DHT22;69869;48.036;15.780;2023-05-24T06:13:26;19.80;74.40
80540;DHT22;69869;48.036;15.780;2023-05-24T06:15:55;19.80;74.40
80540;DHT22;69869;48.036;15.780;2023-05-24T06:18:21;19.80;74.10
80540;DHT22;69869;48.036;15.780;2023-05-24T06:20:46;19.80;74.30
80540;DHT22;69869;48.036;15.780;2023-05-24T06:23:12;19.80;74.00
80540;DHT22;69869;48.036;15.780;2023-05-24T06:25:38;19.80;73.50
80540;DHT22;69869;48.036;15.780;2023-05-24T06:28:04;19.80;73.70
80540;DHT22;69869;48.036;15.780;2023-05-24T06:30:30;19.80;73.80
80540;DHT22;69869;48.036;15.780;2023-05-24T06:32:58;19.80;73.80
80540;DHT22;69869;48.036;15.780;2023-05-24T06:35:23;19.80;73.70
80540;DHT22;69869;48.036;15.780;2023-05-24T06:37:49;19.80;73.80
80540;DHT22;69869;48.036;15.780;2023-05-24T06:40:15;19.80;73.80
80540;DHT22;69869;48.036;15.780;2023-05-24T06:42:40;19.80;74.50
80540;DHT22;69869;48.036;15.780;2023-05-24T06:45:07;19.80;74.80
80540;DHT22;69869;48.036;15.780;2023-05-24T06:47:33;19.80;74.90
80540;DHT22;69869;48.036;15.780;2023-05-24T06:50:00;19.80;74.90
80540;DHT22;69869;48.036;15.780;2023-05-24T06:52:27;19.80;74.70
80540;DHT22;69869;48.036;15.780;2023-05-24T06:54:52;19.80;74.80
80540;DHT22;69869;48.036;15.780;2023-05-24T06:57:18;19.80;74.70
80540;DHT22;69869;48.036;15.780;2023-05-24T06:59:44;19.80;74.30
80540;DHT22;69869;48.036;15.780;2023-05-24T07:02:09;19.80;72.40
80540;DHT22;69869;48.036;15.780;2023-05-24T07:04:35;19.80;71.90
80540;DHT22;69869;48.036;15.780;2023-05-24T07:07:00;19.70;71.50
80540;DHT22;69869;48.036;15.780;2023-05-24T07:09:27;19.70;71.20
80540;DHT22;69869;48.036;15.780;2023-05-24T07:11:53;19.70;70.40
80540;DHT22;69869;48.036;15.780;2023-05-24T07:14:18;19.70;71.00
80540;DHT22;69869;48.036;15.780;2023-05-24T07:16:44;19.70;70.20
80540;DHT22;69869;48.036;15.780;2023-05-24T07:19:10;19.70;70.20
80540;DHT22;69869;48.036;15.780;2023-05-24T07:21:37;19.70;70.00
80540;DHT22;69869;48.036;15.780;2023-05-24T07:24:03;19.70;70.10
80540;DHT22;69869;48.036;15.780;2023-05-24T07:26:29;19.70;69.30
80540;DHT22;69869;48.036;15.780;2023-05-24T07:28:54;19.60;69.70
80540;DHT22;69869;48.036;15.780;2023-05-24T07:31:20;19.60;69.60
80540;DHT22;69869;48.036;15.780;2023-05-24T07:33:47;19.60;69.90
80540;DHT22;69869;48.036;15.780;2023-05-24T07:36:13;19.60;69.90
80540;DHT22;69869;48.036;15.780;2023-05-24T07:38:39;19.60;70.00
80540;DHT22;69869;48.036;15.780;2023-05-24T07:41:05;19.60;68.80
80540;DHT22;69869;48.036;15.780;2023-05-24T07:43:31;19.60;68.60
80540;DHT22;69869;48.036;15.780;2023-05-24T07:45:57;19.60;68.70
80540;DHT22;69869;48.036;15.780;2023-05-24T07:48:23;19.60;69.10
80540;DHT22;69869;48.036;15.780;2023-05-24T07:50:52;19.60;69.10
80540;DHT22;69869;48.036;15.780;2023-05-24T07:53:19;19.60;69.10
80540;DHT22;69869;48.036;15.780;2023-05-24T07:55:45;19.60;68.90
80540;DHT22;69869;48.036;15.780;2023-05-24T07:58:11;19.60;68.90
80540;DHT22;69869;48.036;15.780;2023-05-24T08:00:37;19.60;69.10
80540;DHT22;69869;48.036;15.780;2023-05-24T08:03:03;19.60;69.10
80540;DHT22;69869;48.036;15.780;2023-05-24T08:05:30;19.60;69.20
80540;DHT22;69869;48.036;15.780;2023-05-24T08:07:56;19.60;69.20
80540;DHT22;69869;48.036;15.780;2023-05-24T08:10:21;19.60;69.20
80540;DHT22;69869;48.036;15.780;2023-05-24T08:12:48;19.60;69.10
80540;DHT22;69869;48.036;15.780;2023-05-24T08:15:15;19.60;69.00
80540;DHT22;69869;48.036;15.780;2023-05-24T08:17:41;19.60;68.90
80540;DHT22;69869;48.036;15.780;2023-05-24T08:20:07;19.60;68.60
80540;DHT22;69869;48.036;15.780;2023-05-24T08:22:34;19.60;69.00
80540;DHT22;69869;48.036;15.780;2023-05-24T08:25:00;19.60;69.60
80540;DHT22;69869;48.036;15.780;2023-05-24T08:27:26;19.60;68.60
80540;DHT22;69869;48.036;15.780;2023-05-24T08:29:54;19.60;69.10
80540;DHT22;69869;48.036;15.780;2023-05-24T08:32:20;19.60;68.30
80540;DHT22;69869;48.036;15.780;2023-05-24T08:34:46;19.60;68.40
80540;DHT22;69869;48.036;15.780;2023-05-24T08:37:11;19.60;68.50
80540;DHT22;69869;48.036;15.780;2023-05-24T08:39:39;19.60;68.00
80540;DHT22;69869;48.036;15.780;2023-05-24T08:42:06;19.60;67.80
80540;DHT22;69869;48.036;15.780;2023-05-24T08:44:40;19.60;67.60
80540;DHT22;69869;48.036;15.780;2023-05-24T08:47:06;19.50;67.80
80540;DHT22;69869;48.036;15.780;2023-05-24T08:49:32;19.50;67.90
80540;DHT22;69869;48.036;15.780;2023-05-24T08:52:01;19.60;67.90
80540;DHT22;69869;48.036;15.780;2023-05-24T08:54:28;19.60;68.20
80540;DHT22;69869;48.036;15.780;2023-05-24T08:56:54;19.50;68.40
80540;DHT22;69869;48.036;15.780;2023-05-24T08:59:21;19.50;68.50
80540;DHT22;69869;48.036;15.780;2023-05-24T09:01:52;19.50;68.50
80540;DHT22;69869;48.036;15.780;2023-05-24T09:04:23;19.50;68.40
80540;DHT22;69869;48.036;15.780;2023-05-24T09:06:49;19.50;68.30
80540;DHT22;69869;48.036;15.780;2023-05-24T09:09:17;19.50;68.70
80540;DHT22;69869;48.036;15.780;2023-05-24T09:11:44;19.50;68.50
80540;DHT22;69869;48.036;15.780;2023-05-24T09:14:12;19.50;68.10
80540;DHT22;69869;48.036;15.780;2023-05-24T09:16:38;19.50;67.70
80540;DHT22;69869;48.036;15.780;2023-05-24T09:19:04;19.50;67.70
80540;DHT22;69869;48.036;15.780;2023-05-24T09:21:30;19.50;68.10
80540;DHT22;69869;48.036;15.780;2023-05-24T09:23:57;19.50;68.10
80540;DHT22;69869;48.036;15.780;2023-05-24T09:26:23;19.50;68.10
80540;DHT22;69869;48.036;15.780;2023-05-24T09:28:53;19.50;68.00
80540;DHT22;69869;48.036;15.780;2023-05-24T09:31:20;19.50;68.20
80540;DHT22;69869;48.036;15.780;2023-05-24T09:33:56;19.50;68.10
80540;DHT22;69869;48.036;15.780;2023-05-24T09:36:21;19.50;68.40
80540;DHT22;69869;48.036;15.780;2023-05-24T09:38:47;19.40;68.70
80540;DHT22;69869;48.036;15.780;2023-05-24T09:41:14;19.40;68.70
80540;DHT22;69869;48.036;15.780;2023-05-24T09:43:47;19.50;69.10
80540;DHT22;69869;48.036;15.780;2023-05-24T09:46:17;19.40;68.20
80540;DHT22;69869;48.036;15.780;2023-05-24T09:48:58;19.30;67.90
80540;DHT22;69869;48.036;15.780;2023-05-24T09:51:24;19.30;68.10
80540;DHT22;69869;48.036;15.780;2023-05-24T09:53:50;19.30;67.80
80540;DHT22;69869;48.036;15.780;2023-05-24T09:56:19;19.40;67.60
80540;DHT22;69869;48.036;15.780;2023-05-24T09:58:44;19.40;67.30
80540;DHT22;69869;48.036;15.780;2023-05-24T10:01:10;19.40;66.90
80540;DHT22;69869;48.036;15.780;2023-05-24T10:03:38;19.40;67.40
80540;DHT22;69869;48.036;15.780;2023-05-24T10:06:05;19.40;67.30
80540;DHT22;69869;48.036;15.780;2023-05-24T10:08:34;19.30;67.40
80540;DHT22;69869;48.036;15.780;2023-05-24T10:11:04;19.30;67.70
80540;DHT22;69869;48.036;15.780;2023-05-24T10:13:31;19.30;67.80
80540;DHT22;69869;48.036;15.780;2023-05-24T10:16:00;19.20;66.80
80540;DHT22;69869;48.036;15.780;2023-05-24T10:18:25;19.20;67.40
80540;DHT22;69869;48.036;15.780;2023-05-24T10:20:54;19.20;67.30
80540;DHT22;69869;48.036;15.780;2023-05-24T10:23:20;19.20;67.40
80540;DHT22;69869;48.036;15.780;2023-05-24T10:25:53;19.20;67.80
80540;DHT22;69869;48.036;15.780;2023-05-24T10:28:21;19.30;69.10
80540;DHT22;69869;48.036;15.780;2023-05-24T10:33:25;19.30;67.40
80540;DHT22;69869;48.036;15.780;2023-05-24T10:35:52;19.30;67.40
80540;DHT22;69869;48.036;15.780;2023-05-24T10:38:22;19.30;67.40
80540;DHT22;69869;48.036;15.780;2023-05-24T10:40:49;19.40;67.70
80540;DHT22;69869;48.036;15.780;2023-05-24T10:43:16;19.30;67.80
80540;DHT22;69869;48.036;15.780;2023-05-24T10:45:47;19.40;67.90
80540;DHT22;69869;48.036;15.780;2023-05-24T10:50:40;19.30;67.50
80540;DHT22;69869;48.036;15.780;2023-05-24T10:53:19;19.30;67.30
80540;DHT22;69869;48.036;15.780;2023-05-24T10:55:56;19.40;67.60
80540;DHT22;69869;48.036;15.780;2023-05-24T11:01:23;19.40;67.50
80540;DHT22;69869;48.036;15.780;2023-05-24T11:03:51;19.40;67.50
80540;DHT22;69869;48.036;15.780;2023-05-24T11:06:17;19.30;67.30
80540;DHT22;69869;48.036;15.780;2023-05-24T11:08:42;19.40;67.50
80540;DHT22;69869;48.036;15.780;2023-05-24T11:11:12;19.40;67.50
80540;DHT22;69869;48.036;15.780;2023-05-24T11:13:39;19.40;67.50
80540;DHT22;69869;48.036;15.780;2023-05-24T11:16:06;19.40;67.50
80540;DHT22;69869;48.036;15.780;2023-05-24T11:18:31;19.30;67.30
80540;DHT22;69869;48.036;15.780;2023-05-24T11:21:04;19.40;67.40
80540;DHT22;69869;48.036;15.780;2023-05-24T11:23:30;19.40;67.40
80540;DHT22;69869;48.036;15.780;2023-05-24T11:25:56;19.40;67.30
80540;DHT22;69869;48.036;15.780;2023-05-24T11:28:23;19.40;67.40
80540;DHT22;69869;48.036;15.780;2023-05-24T11:30:49;19.40;67.40
80540;DHT22;69869;48.036;15.780;2023-05-24T11:33:18;19.40;67.40
80540;DHT22;69869;48.036;15.780;2023-05-24T11:35:45;19.40;67.40
80540;DHT22;69869;48.036;15.780;2023-05-24T11:38:12;19.30;67.30
80540;DHT22;69869;48.036;15.780;2023-05-24T11:40:42;19.30;67.30
80540;DHT22;69869;48.036;15.780;2023-05-24T11:43:16;19.40;67.40
80540;DHT22;69869;48.036;15.780;2023-05-24T11:45:45;19.30;67.30
80540;DHT22;69869;48.036;15.780;2023-05-24T11:48:13;19.30;67.30
80540;DHT22;69869;48.036;15.780;2023-05-24T11:50:41;19.40;67.40
80540;DHT22;69869;48.036;15.780;2023-05-24T11:53:14;19.40;67.30
80540;DHT22;69869;48.036;15.780;2023-05-24T11:55:40;19.40;67.40
80540;DHT22;69869;48.036;15.780;2023-05-24T12:00:41;19.40;67.30
80540;DHT22;69869;48.036;15.780;2023-05-24T12:03:07;19.40;67.40
80540;DHT22;69869;48.036;15.780;2023-05-24T12:05:34;19.40;67.40
80540;DHT22;69869;48.036;15.780;2023-05-24T12:08:08;19.40;67.40
80540;DHT22;69869;48.036;15.780;2023-05-24T12:10:35;19.40;67.40
80540;DHT22;69869;48.036;15.780;2023-05-24T12:13:02;19.30;67.30
80540;DHT22;69869;48.036;15.780;2023-05-24T12:15:27;19.40;67.40
80540;DHT22;69869;48.036;15.780;2023-05-24T12:17:53;19.30;67.30
80540;DHT22;69869;48.036;15.780;2023-05-24T12:20:19;19.40;67.40
80540;DHT22;69869;48.036;15.780;2023-05-24T12:22:51;19.30;67.30
80540;DHT22;69869;48.036;15.780;2023-05-24T12:25:17;19.30;67.30
80540;DHT22;69869;48.036;15.780;2023-05-24T12:27:55;19.30;67.40
80540;DHT22;69869;48.036;15.780;2023-05-24T12:30:22;19.30;67.30
80540;DHT22;69869;48.036;15.780;2023-05-24T12:32:48;19.30;67.30
80540;DHT22;69869;48.036;15.780;2023-05-24T12:35:16;19.30;67.40
80540;DHT22;69869;48.036;15.780;2023-05-24T12:37:42;19.40;67.50
80540;DHT22;69869;48.036;15.780;2023-05-24T12:40:19;19.30;67.40
80540;DHT22;69869;48.036;15.780;2023-05-24T12:42:56;19.30;67.40
80540;DHT22;69869;48.036;15.780;2023-05-24T12:45:28;19.30;67.40
80540;DHT22;69869;48.036;15.780;2023-05-24T12:47:55;19.30;67.40
80540;DHT22;69869;48.036;15.780;2023-05-24T12:50:23;19.30;67.40
80540;DHT22;69869;48.036;15.780;2023-05-24T12:52:49;19.30;67.40
80540;DHT22;69869;48.036;15.780;2023-05-24T12:55:22;19.30;67.30
80540;DHT22;69869;48.036;15.780;2023-05-24T12:57:48;19.30;67.40
80540;DHT22;69869;48.036;15.780;2023-05-24T13:00:21;19.30;67.30
80540;DHT22;69869;48.036;15.780;2023-05-24T13:02:47;19.30;67.40
80540;DHT22;69869;48.036;15.780;2023-05-24T13:05:14;19.30;67.30
80540;DHT22;69869;48.036;15.780;2023-05-24T13:07:42;19.30;67.30
80540;DHT22;69869;48.036;15.780;2023-05-24T13:10:08;19.30;67.40
80540;DHT22;69869;48.036;15.780;2023-05-24T13:12:34;19.30;67.30
80540;DHT22;69869;48.036;15.780;2023-05-24T13:15:01;19.30;67.30
80540;DHT22;69869;48.036;15.780;2023-05-24T13:17:27;19.30;67.30
80540;DHT22;69869;48.036;15.780;2023-05-24T13:19:53;19.30;67.30
80540;DHT22;69869;48.036;15.780;2023-05-24T13:22:19;19.30;67.30
80540;DHT22;69869;48.036;15.780;2023-05-24T13:24:45;19.30;67.30
80540;DHT22;69869;48.036;15.780;2023-05-24T13:27:11;19.30;67.30
80540;DHT22;69869;48.036;15.780;2023-05-24T13:29:37;19.30;67.30
80540;DHT22;69869;48.036;15.780;2023-05-24T13:32:03;19.30;67.30
80540;DHT22;69869;48.036;15.780;2023-05-24T13:34:29;19.30;67.80
80540;DHT22;69869;48.036;15.780;2023-05-24T13:36:54;19.30;67.50
80540;DHT22;69869;48.036;15.780;2023-05-24T13:39:21;19.30;67.50
80540;DHT22;69869;48.036;15.780;2023-05-24T13:41:47;19.30;67.40
80540;DHT22;69869;48.036;15.780;2023-05-24T13:44:14;19.30;67.40
80540;DHT22;69869;48.036;15.780;2023-05-24T13:46:41;19.30;67.30
80540;DHT22;69869;48.036;15.780;2023-05-24T13:49:08;19.30;67.30
80540;DHT22;69869;48.036;15.780;2023-05-24T13:51:35;19.30;67.30
80540;DHT22;69869;48.036;15.780;2023-05-24T13:54:01;19.30;67.30
80540;DHT22;69869;48.036;15.780;2023-05-24T13:56:27;19.30;67.30
80540;DHT22;69869;48.036;15.780;2023-05-24T13:58:58;19.40;67.40
80540;DHT22;69869;48.036;15.780;2023-05-24T14:01:25;19.30;67.30
80540;DHT22;69869;48.036;15.780;2023-05-24T14:03:51;19.30;67.30
80540;DHT22;69869;48.036;15.780;2023-05-24T14:06:17;19.30;67.30
80540;DHT22;69869;48.036;15.780;2023-05-24T14:08:44;19.30;67.30
80540;DHT22;69869;48.036;15.780;2023-05-24T14:11:11;19.30;67.30
80540;DHT22;69869;48.036;15.780;2023-05-24T14:13:39;19.30;67.20
80540;DHT22;69869;48.036;15.780;2023-05-24T14:16:05;19.30;67.40
80540;DHT22;69869;48.036;15.780;2023-05-24T14:18:31;19.40;67.80
80540;DHT22;69869;48.036;15.780;2023-05-24T14:20:57;19.40;67.80
80540;DHT22;69869;48.036;15.780;2023-05-24T14:23:22;19.40;68.10
80540;DHT22;69869;48.036;15.780;2023-05-24T14:25:48;19.50;68.30
80540;DHT22;69869;48.036;15.780;2023-05-24T14:28:16;19.50;68.30
80540;DHT22;69869;48.036;15.780;2023-05-24T14:30:42;19.50;68.40
80540;DHT22;69869;48.036;15.780;2023-05-24T14:33:08;19.50;69.20
80540;DHT22;69869;48.036;15.780;2023-05-24T14:35:35;19.50;68.60
80540;DHT22;69869;48.036;15.780;2023-05-24T14:38:04;19.50;68.60
80540;DHT22;69869;48.036;15.780;2023-05-24T14:40:30;19.50;68.90
80540;DHT22;69869;48.036;15.780;2023-05-24T14:42:58;19.50;69.00
80540;DHT22;69869;48.036;15.780;2023-05-24T14:45:24;19.50;69.00
80540;DHT22;69869;48.036;15.780;2023-05-24T14:47:50;19.60;69.10
80540;DHT22;69869;48.036;15.780;2023-05-24T14:50:15;19.60;69.10
80540;DHT22;69869;48.036;15.780;2023-05-24T14:52:41;19.60;69.10
80540;DHT22;69869;48.036;15.780;2023-05-24T14:55:07;19.60;69.10
80540;DHT22;69869;48.036;15.780;2023-05-24T14:57:32;19.60;69.10
80540;DHT22;69869;48.036;15.780;2023-05-24T14:59:58;19.60;69.10
80540;DHT22;69869;48.036;15.780;2023-05-24T15:02:24;19.60;69.10
80540;DHT22;69869;48.036;15.780;2023-05-24T15:04:50;19.60;69.10
80540;DHT22;69869;48.036;15.780;2023-05-24T15:07:15;19.60;69.10
80540;DHT22;69869;48.036;15.780;2023-05-24T15:09:41;19.60;69.10
80540;DHT22;69869;48.036;15.780;2023-05-24T15:12:07;19.60;69.10
80540;DHT22;69869;48.036;15.780;2023-05-24T15:14:33;19.60;69.10
80540;DHT22;69869;48.036;15.780;2023-05-24T15:16:58;19.60;69.60
80540;DHT22;69869;48.036;15.780;2023-05-24T15:19:24;19.60;69.10
80540;DHT22;69869;48.036;15.780;2023-05-24T15:21:50;19.60;69.40
80540;DHT22;69869;48.036;15.780;2023-05-24T15:24:16;19.60;69.50
80540;DHT22;69869;48.036;15.780;2023-05-24T15:26:41;19.60;69.60
80540;DHT22;69869;48.036;15.780;2023-05-24T15:29:07;19.60;69.50
80540;DHT22;69869;48.036;15.780;2023-05-24T15:31:33;19.60;69.70
80540;DHT22;69869;48.036;15.780;2023-05-24T15:33:59;19.60;69.80
80540;DHT22;69869;48.036;15.780;2023-05-24T15:36:24;19.60;69.70
80540;DHT22;69869;48.036;15.780;2023-05-24T15:38:50;19.60;69.70